sensor_id;sensor_type;location;lat;lon;timestamp;temperature;humidity
45283;DHT22;31023;44.994;1.796;2023-04-25T00:00:02;11.50;99.90
45283;DHT22;31023;44.994;1.796;2023-04-25T00:02:28;11.50;99.90
45283;DHT22;31023;44.994;1.796;2023-04-25T00:04:54;11.50;99.90
45283;DHT22;31023;44.994;1.796;2023-04-25T00:07:25;11.50;99.90
45283;DHT22;31023;44.994;1.796;2023-04-25T00:09:50;11.40;99.90
45283;DHT22;31023;44.994;1.796;2023-04-25T00:12:16;11.40;99.90
45283;DHT22;31023;44.994;1.796;2023-04-25T00:14:42;11.40;99.90
45283;DHT22;31023;44.994;1.796;2023-04-25T00:17:08;11.50;99.90
45283;DHT22;31023;44.994;1.796;2023-04-25T00:19:33;11.50;99.90
45283;DHT22;31023;44.994;1.796;2023-04-25T00:22:00;11.50;99.90
45283;DHT22;31023;44.994;1.796;2023-04-25T00:24:26;11.40;99.90
45283;DHT22;31023;44.994;1.796;2023-04-25T00:26:51;11.40;99.90
45283;DHT22;31023;44.994;1.796;2023-04-25T00:29:17;11.40;99.90
45283;DHT22;31023;44.994;1.796;2023-04-25T00:31:42;11.40;99.90
45283;DHT22;31023;44.994;1.796;2023-04-25T00:34:08;11.30;99.90
45283;DHT22;31023;44.994;1.796;2023-04-25T00:36:34;11.20;99.90
45283;DHT22;31023;44.994;1.796;2023-04-25T00:38:59;11.10;99.90
45283;DHT22;31023;44.994;1.796;2023-04-25T00:41:26;11.10;99.90
45283;DHT22;31023;44.994;1.796;2023-04-25T00:43:53;11.00;99.90
45283;DHT22;31023;44.994;1.796;2023-04-25T00:46:19;11.10;99.90
45283;DHT22;31023;44.994;1.796;2023-04-25T00:48:45;11.10;99.90
45283;DHT22;31023;44.994;1.796;2023-04-25T00:51:14;11.10;99.90
45283;DHT22;31023;44.994;1.796;2023-04-25T00:53:41;11.20;99.90
45283;DHT22;31023;44.994;1.796;2023-04-25T00:56:07;11.20;99.90
45283;DHT22;31023;44.994;1.796;2023-04-25T00:58:33;11.00;99.90
45283;DHT22;31023;44.994;1.796;2023-04-25T01:00:58;11.10;99.90
45283;DHT22;31023;44.994;1.796;2023-04-25T01:03:25;11.00;99.90
45283;DHT22;31023;44.994;1.796;2023-04-25T01:05:54;11.30;99.90
45283;DHT22;31023;44.994;1.796;2023-04-25T01:08:23;11.30;99.90
45283;DHT22;31023;44.994;1.796;2023-04-25T01:10:49;11.30;99.90
45283;DHT22;31023;44.994;1.796;2023-04-25T01:13:14;11.30;99.90
45283;DHT22;31023;44.994;1.796;2023-04-25T01:15:40;11.20;99.90
45283;DHT22;31023;44.994;1.796;2023-04-25T01:18:06;11.30;99.90
45283;DHT22;31023;44.994;1.796;2023-04-25T01:20:33;11.20;99.90
45283;DHT22;31023;44.994;1.796;2023-04-25T01:23:00;11.20;99.90
45283;DHT22;31023;44.994;1.796;2023-04-25T01:25:27;11.20;99.90
45283;DHT22;31023;44.994;1.796;2023-04-25T01:27:53;11.00;99.90
45283;DHT22;31023;44.994;1.796;2023-04-25T01:30:19;11.30;99.90
45283;DHT22;31023;44.994;1.796;2023-04-25T01:32:45;11.20;99.90
45283;DHT22;31023;44.994;1.796;2023-04-25T01:35:11;11.00;99.90
45283;DHT22;31023;44.994;1.796;2023-04-25T01:37:41;11.10;99.90
45283;DHT22;31023;44.994;1.796;2023-04-25T01:40:09;10.90;99.90
45283;DHT22;31023;44.994;1.796;2023-04-25T01:42:40;11.10;99.90
45283;DHT22;31023;44.994;1.796;2023-04-25T01:45:07;11.10;99.90
45283;DHT22;31023;44.994;1.796;2023-04-25T01:47:33;11.10;99.90
45283;DHT22;31023;44.994;1.796;2023-04-25T01:50:01;11.00;99.90
45283;DHT22;31023;44.994;1.796;2023-04-25T01:52:26;10.90;99.90
45283;DHT22;31023;44.994;1.796;2023-04-25T01:54:52;11.00;99.90
45283;DHT22;31023;44.994;1.796;2023-04-25T01:57:18;11.00;99.90
45283;DHT22;31023;44.994;1.796;2023-04-25T01:59:44;11.00;99.90
45283;DHT22;31023;44.994;1.796;2023-04-25T02:02:10;11.20;99.90
45283;DHT22;31023;44.994;1.796;2023-04-25T02:04:36;11.20;99.90
45283;DHT22;31023;44.994;1.796;2023-04-25T02:07:01;11.20;99.90
45283;DHT22;31023;44.994;1.796;2023-04-25T02:09:27;11.20;99.90
45283;DHT22;31023;44.994;1.796;2023-04-25T02:11:53;11.20;99.90
45283;DHT22;31023;44.994;1.796;2023-04-25T02:14:18;11.20;99.90
45283;DHT22;31023;44.994;1.796;2023-04-25T02:16:44;11.10;99.90
45283;DHT22;31023;44.994;1.796;2023-04-25T02:19:10;11.20;99.90
45283;DHT22;31023;44.994;1.796;2023-04-25T02:21:36;11.20;99.90
45283;DHT22;31023;44.994;1.796;2023-04-25T02:24:03;11.20;99.90
45283;DHT22;31023;44.994;1.796;2023-04-25T02:26:29;11.00;99.90
45283;DHT22;31023;44.994;1.796;2023-04-25T02:28:56;10.90;99.90
45283;DHT22;31023;44.994;1.796;2023-04-25T02:31:22;10.90;99.90
45283;DHT22;31023;44.994;1.796;2023-04-25T02:33:48;11.00;99.90
45283;DHT22;31023;44.994;1.796;2023-04-25T02:36:14;10.90;99.90
45283;DHT22;31023;44.994;1.796;2023-04-25T02:38:40;10.90;99.90
45283;DHT22;31023;44.994;1.796;2023-04-25T02:41:06;10.80;99.90
45283;DHT22;31023;44.994;1.796;2023-04-25T02:43:31;10.90;99.90
45283;DHT22;31023;44.994;1.796;2023-04-25T02:45:57;10.80;99.90
45283;DHT22;31023;44.994;1.796;2023-04-25T02:48:23;10.70;99.90
45283;DHT22;31023;44.994;1.796;2023-04-25T02:50:48;10.80;99.90
45283;DHT22;31023;44.994;1.796;2023-04-25T02:53:14;10.80;99.90
45283;DHT22;31023;44.994;1.796;2023-04-25T02:55:40;10.80;99.90
45283;DHT22;31023;44.994;1.796;2023-04-25T02:58:06;10.90;99.90
45283;DHT22;31023;44.994;1.796;2023-04-25T03:00:31;10.80;99.90
45283;DHT22;31023;44.994;1.796;2023-04-25T03:02:57;10.80;99.90
45283;DHT22;31023;44.994;1.796;2023-04-25T03:05:23;10.70;99.90
45283;DHT22;31023;44.994;1.796;2023-04-25T03:07:49;10.80;99.90
45283;DHT22;31023;44.994;1.796;2023-04-25T03:10:14;10.80;99.90
45283;DHT22;31023;44.994;1.796;2023-04-25T03:12:40;10.80;99.90
45283;DHT22;31023;44.994;1.796;2023-04-25T03:15:06;10.90;99.90
45283;DHT22;31023;44.994;1.796;2023-04-25T03:17:32;10.80;99.90
45283;DHT22;31023;44.994;1.796;2023-04-25T03:19:58;10.70;99.90
45283;DHT22;31023;44.994;1.796;2023-04-25T03:22:24;10.80;99.90
45283;DHT22;31023;44.994;1.796;2023-04-25T03:24:50;10.90;99.90
45283;DHT22;31023;44.994;1.796;2023-04-25T03:27:16;10.90;99.90
45283;DHT22;31023;44.994;1.796;2023-04-25T03:29:42;10.70;99.90
45283;DHT22;31023;44.994;1.796;2023-04-25T03:32:07;10.60;99.90
45283;DHT22;31023;44.994;1.796;2023-04-25T03:34:33;10.70;99.90
45283;DHT22;31023;44.994;1.796;2023-04-25T03:36:59;10.70;99.90
45283;DHT22;31023;44.994;1.796;2023-04-25T03:39:25;10.70;99.90
45283;DHT22;31023;44.994;1.796;2023-04-25T03:41:51;10.70;99.90
45283;DHT22;31023;44.994;1.796;2023-04-25T03:44:16;10.70;99.90
45283;DHT22;31023;44.994;1.796;2023-04-25T03:46:42;10.70;99.90
45283;DHT22;31023;44.994;1.796;2023-04-25T03:49:08;10.80;99.90
45283;DHT22;31023;44.994;1.796;2023-04-25T03:51:34;10.90;99.90
45283;DHT22;31023;44.994;1.796;2023-04-25T03:53:59;10.90;99.90
45283;DHT22;31023;44.994;1.796;2023-04-25T03:56:25;10.80;99.90
45283;DHT22;31023;44.994;1.796;2023-04-25T03:58:50;10.60;99.90
45283;DHT22;31023;44.994;1.796;2023-04-25T04:01:16;10.50;99.90
45283;DHT22;31023;44.994;1.796;2023-04-25T04:03:42;10.40;99.90
45283;DHT22;31023;44.994;1.796;2023-04-25T04:06:08;10.30;99.90
45283;DHT22;31023;44.994;1.796;2023-04-25T04:08:34;10.20;99.90
45283;DHT22;31023;44.994;1.796;2023-04-25T04:11:00;10.10;99.90
45283;DHT22;31023;44.994;1.796;2023-04-25T04:13:26;10.10;99.90
45283;DHT22;31023;44.994;1.796;2023-04-25T04:15:52;10.10;99.90
45283;DHT22;31023;44.994;1.796;2023-04-25T04:18:18;10.10;99.90
45283;DHT22;31023;44.994;1.796;2023-04-25T04:20:44;10.20;99.90
45283;DHT22;31023;44.994;1.796;2023-04-25T04:23:10;10.30;99.90
45283;DHT22;31023;44.994;1.796;2023-04-25T04:25:36;10.20;99.90
45283;DHT22;31023;44.994;1.796;2023-04-25T04:28:02;10.30;99.90
45283;DHT22;31023;44.994;1.796;2023-04-25T04:30:28;10.40;99.90
45283;DHT22;31023;44.994;1.796;2023-04-25T04:32:57;10.30;99.90
45283;DHT22;31023;44.994;1.796;2023-04-25T04:35:23;10.40;99.90
45283;DHT22;31023;44.994;1.796;2023-04-25T04:37:50;10.40;99.90
45283;DHT22;31023;44.994;1.796;2023-04-25T04:40:17;10.30;99.90
45283;DHT22;31023;44.994;1.796;2023-04-25T04:42:45;10.30;99.90
45283;DHT22;31023;44.994;1.796;2023-04-25T04:45:11;10.40;99.90
45283;DHT22;31023;44.994;1.796;2023-04-25T04:47:38;10.40;99.90
45283;DHT22;31023;44.994;1.796;2023-04-25T04:50:08;10.40;99.90
45283;DHT22;31023;44.994;1.796;2023-04-25T04:52:38;10.50;99.90
45283;DHT22;31023;44.994;1.796;2023-04-25T04:55:04;10.50;99.90
45283;DHT22;31023;44.994;1.796;2023-04-25T04:57:31;10.50;99.90
45283;DHT22;31023;44.994;1.796;2023-04-25T04:59:58;10.40;99.90
45283;DHT22;31023;44.994;1.796;2023-04-25T05:02:24;10.50;99.90
45283;DHT22;31023;44.994;1.796;2023-04-25T05:04:49;10.50;99.90
45283;DHT22;31023;44.994;1.796;2023-04-25T05:07:17;10.40;99.90
45283;DHT22;31023;44.994;1.796;2023-04-25T05:09:42;10.40;99.90
45283;DHT22;31023;44.994;1.796;2023-04-25T05:12:08;10.40;99.90
45283;DHT22;31023;44.994;1.796;2023-04-25T05:14:34;10.50;99.90
45283;DHT22;31023;44.994;1.796;2023-04-25T05:17:00;10.50;99.90
45283;DHT22;31023;44.994;1.796;2023-04-25T05:19:25;10.50;99.90
45283;DHT22;31023;44.994;1.796;2023-04-25T05:21:52;10.50;99.90
45283;DHT22;31023;44.994;1.796;2023-04-25T05:24:17;10.50;99.90
45283;DHT22;31023;44.994;1.796;2023-04-25T05:26:43;10.50;99.90
45283;DHT22;31023;44.994;1.796;2023-04-25T05:29:09;10.60;99.90
45283;DHT22;31023;44.994;1.796;2023-04-25T05:31:35;10.60;99.90
45283;DHT22;31023;44.994;1.796;2023-04-25T05:34:01;10.60;99.90
45283;DHT22;31023;44.994;1.796;2023-04-25T05:36:27;10.70;99.90
45283;DHT22;31023;44.994;1.796;2023-04-25T05:38:53;10.60;99.90
45283;DHT22;31023;44.994;1.796;2023-04-25T05:41:19;10.60;99.90
45283;DHT22;31023;44.994;1.796;2023-04-25T05:43:45;10.60;99.90
45283;DHT22;31023;44.994;1.796;2023-04-25T05:46:12;10.60;99.90
45283;DHT22;31023;44.994;1.796;2023-04-25T05:48:38;10.60;99.90
45283;DHT22;31023;44.994;1.796;2023-04-25T05:51:04;10.60;99.90
45283;DHT22;31023;44.994;1.796;2023-04-25T05:53:30;10.80;99.90
45283;DHT22;31023;44.994;1.796;2023-04-25T05:55:56;10.90;99.90
45283;DHT22;31023;44.994;1.796;2023-04-25T05:58:22;11.00;99.90
45283;DHT22;31023;44.994;1.796;2023-04-25T06:00:47;10.90;99.90
45283;DHT22;31023;44.994;1.796;2023-04-25T06:03:13;10.90;99.90
45283;DHT22;31023;44.994;1.796;2023-04-25T06:05:42;10.90;99.90
45283;DHT22;31023;44.994;1.796;2023-04-25T06:08:08;10.90;99.90
45283;DHT22;31023;44.994;1.796;2023-04-25T06:10:34;10.90;99.90
45283;DHT22;31023;44.994;1.796;2023-04-25T06:13:00;10.80;99.90
45283;DHT22;31023;44.994;1.796;2023-04-25T06:15:25;10.90;99.90
45283;DHT22;31023;44.994;1.796;2023-04-25T06:17:51;10.80;99.90
45283;DHT22;31023;44.994;1.796;2023-04-25T06:20:17;10.90;99.90
45283;DHT22;31023;44.994;1.796;2023-04-25T06:22:42;10.90;99.90
45283;DHT22;31023;44.994;1.796;2023-04-25T06:25:08;11.10;99.90
45283;DHT22;31023;44.994;1.796;2023-04-25T06:27:34;11.10;99.90
45283;DHT22;31023;44.994;1.796;2023-04-25T06:30:00;11.20;99.90
45283;DHT22;31023;44.994;1.796;2023-04-25T06:32:25;11.30;99.90
45283;DHT22;31023;44.994;1.796;2023-04-25T06:34:53;11.30;99.90
45283;DHT22;31023;44.994;1.796;2023-04-25T06:37:18;11.40;99.90
45283;DHT22;31023;44.994;1.796;2023-04-25T06:39:44;11.40;99.90
45283;DHT22;31023;44.994;1.796;2023-04-25T06:42:10;11.30;99.90
45283;DHT22;31023;44.994;1.796;2023-04-25T06:44:36;11.10;99.90
45283;DHT22;31023;44.994;1.796;2023-04-25T06:47:01;11.30;99.90
45283;DHT22;31023;44.994;1.796;2023-04-25T06:49:27;11.60;99.90
45283;DHT22;31023;44.994;1.796;2023-04-25T06:51:53;11.80;99.90
45283;DHT22;31023;44.994;1.796;2023-04-25T06:54:19;11.80;99.90
45283;DHT22;31023;44.994;1.796;2023-04-25T06:56:44;11.70;99.90
45283;DHT22;31023;44.994;1.796;2023-04-25T06:59:10;11.70;99.90
45283;DHT22;31023;44.994;1.796;2023-04-25T07:01:36;11.70;99.90
45283;DHT22;31023;44.994;1.796;2023-04-25T07:04:01;11.80;99.90
45283;DHT22;31023;44.994;1.796;2023-04-25T07:06:27;12.00;99.90
45283;DHT22;31023;44.994;1.796;2023-04-25T07:08:53;12.30;99.90
45283;DHT22;31023;44.994;1.796;2023-04-25T07:11:19;13.00;99.90
45283;DHT22;31023;44.994;1.796;2023-04-25T07:13:45;13.30;99.90
45283;DHT22;31023;44.994;1.796;2023-04-25T07:16:10;13.60;99.90
45283;DHT22;31023;44.994;1.796;2023-04-25T07:18:36;13.90;99.90
45283;DHT22;31023;44.994;1.796;2023-04-25T07:21:02;14.30;99.90
45283;DHT22;31023;44.994;1.796;2023-04-25T07:23:28;13.90;99.90
45283;DHT22;31023;44.994;1.796;2023-04-25T07:25:53;13.70;99.90
45283;DHT22;31023;44.994;1.796;2023-04-25T07:28:19;13.80;99.90
45283;DHT22;31023;44.994;1.796;2023-04-25T07:30:45;13.70;99.90
45283;DHT22;31023;44.994;1.796;2023-04-25T07:33:11;14.80;99.90
45283;DHT22;31023;44.994;1.796;2023-04-25T07:35:37;18.30;95.30
45283;DHT22;31023;44.994;1.796;2023-04-25T07:38:02;19.80;91.30
45283;DHT22;31023;44.994;1.796;2023-04-25T07:40:29;17.30;88.00
45283;DHT22;31023;44.994;1.796;2023-04-25T07:42:55;16.00;93.40
45283;DHT22;31023;44.994;1.796;2023-04-25T07:45:21;15.10;94.80
45283;DHT22;31023;44.994;1.796;2023-04-25T07:47:46;15.20;96.80
45283;DHT22;31023;44.994;1.796;2023-04-25T07:50:12;15.50;96.10
45283;DHT22;31023;44.994;1.796;2023-04-25T07:52:38;16.10;94.00
45283;DHT22;31023;44.994;1.796;2023-04-25T07:55:04;17.40;92.50
45283;DHT22;31023;44.994;1.796;2023-04-25T07:57:29;17.90;90.60
45283;DHT22;31023;44.994;1.796;2023-04-25T07:59:55;16.60;92.00
45283;DHT22;31023;44.994;1.796;2023-04-25T08:02:21;15.10;93.90
45283;DHT22;31023;44.994;1.796;2023-04-25T08:04:47;14.30;96.20
45283;DHT22;31023;44.994;1.796;2023-04-25T08:07:14;15.10;94.80
45283;DHT22;31023;44.994;1.796;2023-04-25T08:09:40;17.60;91.10
45283;DHT22;31023;44.994;1.796;2023-04-25T08:12:06;18.10;88.00
45283;DHT22;31023;44.994;1.796;2023-04-25T08:14:32;18.40;84.50
45283;DHT22;31023;44.994;1.796;2023-04-25T08:17:02;17.50;88.80
45283;DHT22;31023;44.994;1.796;2023-04-25T08:19:29;16.40;91.30
45283;DHT22;31023;44.994;1.796;2023-04-25T08:21:55;14.90;92.80
45283;DHT22;31023;44.994;1.796;2023-04-25T08:24:22;14.30;92.50
45283;DHT22;31023;44.994;1.796;2023-04-25T08:26:48;14.40;93.80
45283;DHT22;31023;44.994;1.796;2023-04-25T08:29:14;13.90;95.20
45283;DHT22;31023;44.994;1.796;2023-04-25T08:31:39;14.10;95.20
45283;DHT22;31023;44.994;1.796;2023-04-25T08:34:05;13.90;95.80
45283;DHT22;31023;44.994;1.796;2023-04-25T08:36:31;13.70;95.20
45283;DHT22;31023;44.994;1.796;2023-04-25T08:38:58;13.80;95.80
45283;DHT22;31023;44.994;1.796;2023-04-25T08:41:24;14.20;94.90
45283;DHT22;31023;44.994;1.796;2023-04-25T08:43:51;14.80;94.00
45283;DHT22;31023;44.994;1.796;2023-04-25T08:46:19;14.50;94.80
45283;DHT22;31023;44.994;1.796;2023-04-25T08:48:45;14.60;94.90
45283;DHT22;31023;44.994;1.796;2023-04-25T08:51:19;14.40;94.00
45283;DHT22;31023;44.994;1.796;2023-04-25T08:53:46;14.30;94.50
45283;DHT22;31023;44.994;1.796;2023-04-25T08:56:16;14.00;94.60
45283;DHT22;31023;44.994;1.796;2023-04-25T08:58:51;14.00;95.90
45283;DHT22;31023;44.994;1.796;2023-04-25T09:01:18;14.10;95.40
45283;DHT22;31023;44.994;1.796;2023-04-25T09:03:44;14.40;94.30
45283;DHT22;31023;44.994;1.796;2023-04-25T09:06:11;14.60;93.30
45283;DHT22;31023;44.994;1.796;2023-04-25T09:08:37;15.60;92.70
45283;DHT22;31023;44.994;1.796;2023-04-25T09:11:06;15.80;91.80
45283;DHT22;31023;44.994;1.796;2023-04-25T09:13:31;15.40;91.60
45283;DHT22;31023;44.994;1.796;2023-04-25T09:15:58;15.70;91.40
45283;DHT22;31023;44.994;1.796;2023-04-25T09:20:51;18.20;85.00
45283;DHT22;31023;44.994;1.796;2023-04-25T09:23:18;18.80;80.80
45283;DHT22;31023;44.994;1.796;2023-04-25T09:25:51;18.80;80.90
45283;DHT22;31023;44.994;1.796;2023-04-25T09:28:23;19.80;76.50
45283;DHT22;31023;44.994;1.796;2023-04-25T09:30:52;18.90;81.10
45283;DHT22;31023;44.994;1.796;2023-04-25T09:33:19;18.50;81.10
45283;DHT22;31023;44.994;1.796;2023-04-25T09:35:45;21.50;76.20
45283;DHT22;31023;44.994;1.796;2023-04-25T09:38:12;21.30;70.40
45283;DHT22;31023;44.994;1.796;2023-04-25T09:40:40;19.20;72.30
45283;DHT22;31023;44.994;1.796;2023-04-25T09:43:18;18.10;73.20
45283;DHT22;31023;44.994;1.796;2023-04-25T09:45:44;18.50;73.80
45283;DHT22;31023;44.994;1.796;2023-04-25T09:48:12;18.90;71.10
45283;DHT22;31023;44.994;1.796;2023-04-25T09:50:41;17.70;73.00
45283;DHT22;31023;44.994;1.796;2023-04-25T09:53:07;17.10;73.80
45283;DHT22;31023;44.994;1.796;2023-04-25T09:55:34;16.90;76.30
45283;DHT22;31023;44.994;1.796;2023-04-25T09:58:05;16.70;71.60
45283;DHT22;31023;44.994;1.796;2023-04-25T10:00:34;17.50;73.30
45283;DHT22;31023;44.994;1.796;2023-04-25T10:03:01;17.30;71.20
45283;DHT22;31023;44.994;1.796;2023-04-25T10:05:30;17.30;71.10
45283;DHT22;31023;44.994;1.796;2023-04-25T10:07:59;17.30;70.30
45283;DHT22;31023;44.994;1.796;2023-04-25T10:10:28;17.60;69.70
45283;DHT22;31023;44.994;1.796;2023-04-25T10:12:55;17.60;70.50
45283;DHT22;31023;44.994;1.796;2023-04-25T10:15:22;17.40;73.50
45283;DHT22;31023;44.994;1.796;2023-04-25T10:17:49;16.90;72.70
45283;DHT22;31023;44.994;1.796;2023-04-25T10:20:16;16.90;72.90
45283;DHT22;31023;44.994;1.796;2023-04-25T10:22:46;16.60;72.30
45283;DHT22;31023;44.994;1.796;2023-04-25T10:25:14;17.10;73.10
45283;DHT22;31023;44.994;1.796;2023-04-25T10:27:40;17.40;73.60
45283;DHT22;31023;44.994;1.796;2023-04-25T10:30:07;17.90;71.60
45283;DHT22;31023;44.994;1.796;2023-04-25T10:32:36;18.00;72.50
45283;DHT22;31023;44.994;1.796;2023-04-25T10:35:23;17.70;73.10
45283;DHT22;31023;44.994;1.796;2023-04-25T10:38:09;17.60;73.90
45283;DHT22;31023;44.994;1.796;2023-04-25T10:40:36;17.40;72.70
45283;DHT22;31023;44.994;1.796;2023-04-25T10:45:56;16.50;75.10
45283;DHT22;31023;44.994;1.796;2023-04-25T10:48:31;16.50;74.40
45283;DHT22;31023;44.994;1.796;2023-04-25T10:51:19;17.00;73.10
45283;DHT22;31023;44.994;1.796;2023-04-25T10:54:06;16.80;73.40
45283;DHT22;31023;44.994;1.796;2023-04-25T10:56:36;16.50;74.40
45283;DHT22;31023;44.994;1.796;2023-04-25T10:59:17;17.00;74.30
45283;DHT22;31023;44.994;1.796;2023-04-25T11:01:48;17.50;73.30
45283;DHT22;31023;44.994;1.796;2023-04-25T11:04:32;17.80;72.70
45283;DHT22;31023;44.994;1.796;2023-04-25T11:09:54;17.50;72.60
45283;DHT22;31023;44.994;1.796;2023-04-25T11:12:20;18.00;72.90
45283;DHT22;31023;44.994;1.796;2023-04-25T11:14:46;18.40;73.60
45283;DHT22;31023;44.994;1.796;2023-04-25T11:17:11;17.90;72.00
45283;DHT22;31023;44.994;1.796;2023-04-25T11:19:37;18.30;78.00
45283;DHT22;31023;44.994;1.796;2023-04-25T11:22:03;18.50;75.20
45283;DHT22;31023;44.994;1.796;2023-04-25T11:24:30;18.60;74.70
45283;DHT22;31023;44.994;1.796;2023-04-25T11:27:07;18.10;73.70
45283;DHT22;31023;44.994;1.796;2023-04-25T11:29:34;18.10;70.50
45283;DHT22;31023;44.994;1.796;2023-04-25T11:32:00;18.00;70.10
45283;DHT22;31023;44.994;1.796;2023-04-25T11:34:27;17.90;71.50
45283;DHT22;31023;44.994;1.796;2023-04-25T11:36:56;17.80;70.90
45283;DHT22;31023;44.994;1.796;2023-04-25T11:39:24;18.50;69.20
45283;DHT22;31023;44.994;1.796;2023-04-25T11:41:50;18.30;66.30
45283;DHT22;31023;44.994;1.796;2023-04-25T11:44:17;18.60;69.10
45283;DHT22;31023;44.994;1.796;2023-04-25T11:46:44;18.60;69.40
45283;DHT22;31023;44.994;1.796;2023-04-25T11:49:10;18.80;71.10
45283;DHT22;31023;44.994;1.796;2023-04-25T11:51:44;18.40;72.60
45283;DHT22;31023;44.994;1.796;2023-04-25T11:54:10;18.30;71.30
45283;DHT22;31023;44.994;1.796;2023-04-25T11:56:37;18.30;71.00
45283;DHT22;31023;44.994;1.796;2023-04-25T11:59:04;18.40;69.00
45283;DHT22;31023;44.994;1.796;2023-04-25T12:01:38;18.70;68.50
45283;DHT22;31023;44.994;1.796;2023-04-25T12:04:11;18.50;73.20
45283;DHT22;31023;44.994;1.796;2023-04-25T12:06:38;18.30;72.80
45283;DHT22;31023;44.994;1.796;2023-04-25T12:09:08;18.20;73.10
45283;DHT22;31023;44.994;1.796;2023-04-25T12:12:01;18.40;70.70
45283;DHT22;31023;44.994;1.796;2023-04-25T12:14:32;18.80;73.00
45283;DHT22;31023;44.994;1.796;2023-04-25T12:17:00;18.50;68.20
45283;DHT22;31023;44.994;1.796;2023-04-25T12:19:35;18.20;68.90
45283;DHT22;31023;44.994;1.796;2023-04-25T12:22:02;18.20;70.20
45283;DHT22;31023;44.994;1.796;2023-04-25T12:24:33;18.60;69.30
45283;DHT22;31023;44.994;1.796;2023-04-25T12:29:27;18.90;72.00
45283;DHT22;31023;44.994;1.796;2023-04-25T12:31:54;18.80;70.60
45283;DHT22;31023;44.994;1.796;2023-04-25T12:34:21;19.00;66.80
45283;DHT22;31023;44.994;1.796;2023-04-25T12:36:47;18.80;64.80
45283;DHT22;31023;44.994;1.796;2023-04-25T12:39:17;18.90;64.40
45283;DHT22;31023;44.994;1.796;2023-04-25T12:41:45;18.60;65.40
45283;DHT22;31023;44.994;1.796;2023-04-25T12:44:11;18.90;68.50
45283;DHT22;31023;44.994;1.796;2023-04-25T12:46:37;18.70;69.60
45283;DHT22;31023;44.994;1.796;2023-04-25T12:49:04;18.10;71.40
45283;DHT22;31023;44.994;1.796;2023-04-25T12:51:30;17.60;72.00
45283;DHT22;31023;44.994;1.796;2023-04-25T12:54:00;17.90;71.40
45283;DHT22;31023;44.994;1.796;2023-04-25T12:56:27;18.10;70.80
45283;DHT22;31023;44.994;1.796;2023-04-25T12:58:53;17.80;73.40
45283;DHT22;31023;44.994;1.796;2023-04-25T13:01:19;17.80;72.10
45283;DHT22;31023;44.994;1.796;2023-04-25T13:03:45;17.60;71.80
45283;DHT22;31023;44.994;1.796;2023-04-25T13:06:11;17.60;74.10
45283;DHT22;31023;44.994;1.796;2023-04-25T13:08:38;17.40;74.60
45283;DHT22;31023;44.994;1.796;2023-04-25T13:11:05;17.80;73.40
45283;DHT22;31023;44.994;1.796;2023-04-25T13:13:30;17.60;72.80
45283;DHT22;31023;44.994;1.796;2023-04-25T13:15:57;17.80;71.60
45283;DHT22;31023;44.994;1.796;2023-04-25T13:18:23;18.00;72.90
45283;DHT22;31023;44.994;1.796;2023-04-25T13:20:54;17.90;72.70
45283;DHT22;31023;44.994;1.796;2023-04-25T13:23:20;18.10;72.10
45283;DHT22;31023;44.994;1.796;2023-04-25T13:25:46;17.40;72.30
45283;DHT22;31023;44.994;1.796;2023-04-25T13:28:13;17.80;71.40
45283;DHT22;31023;44.994;1.796;2023-04-25T13:30:39;17.90;69.20
45283;DHT22;31023;44.994;1.796;2023-04-25T13:33:04;17.60;70.70
45283;DHT22;31023;44.994;1.796;2023-04-25T13:35:32;17.50;70.60
45283;DHT22;31023;44.994;1.796;2023-04-25T13:37:58;17.30;68.80
45283;DHT22;31023;44.994;1.796;2023-04-25T13:40:24;16.90;71.00
45283;DHT22;31023;44.994;1.796;2023-04-25T13:42:50;17.00;71.60
45283;DHT22;31023;44.994;1.796;2023-04-25T13:45:16;17.10;71.70
45283;DHT22;31023;44.994;1.796;2023-04-25T13:47:42;17.10;72.90
45283;DHT22;31023;44.994;1.796;2023-04-25T13:50:08;17.30;73.80
45283;DHT22;31023;44.994;1.796;2023-04-25T13:52:35;17.20;73.00
45283;DHT22;31023;44.994;1.796;2023-04-25T13:55:01;17.40;71.20
45283;DHT22;31023;44.994;1.796;2023-04-25T13:57:30;17.40;71.70
45283;DHT22;31023;44.994;1.796;2023-04-25T13:59:55;17.40;73.00
45283;DHT22;31023;44.994;1.796;2023-04-25T14:02:21;16.90;74.00
45283;DHT22;31023;44.994;1.796;2023-04-25T14:04:47;17.30;72.00
45283;DHT22;31023;44.994;1.796;2023-04-25T14:07:14;17.50;70.80
45283;DHT22;31023;44.994;1.796;2023-04-25T14:09:43;17.40;73.10
45283;DHT22;31023;44.994;1.796;2023-04-25T14:12:09;17.90;70.00
45283;DHT22;31023;44.994;1.796;2023-04-25T14:14:34;18.10;71.20
45283;DHT22;31023;44.994;1.796;2023-04-25T14:17:00;17.90;70.60
45283;DHT22;31023;44.994;1.796;2023-04-25T14:19:26;17.80;72.40
45283;DHT22;31023;44.994;1.796;2023-04-25T14:21:53;17.50;72.30
45283;DHT22;31023;44.994;1.796;2023-04-25T14:24:18;17.80;70.40
45283;DHT22;31023;44.994;1.796;2023-04-25T14:26:44;17.50;72.50
45283;DHT22;31023;44.994;1.796;2023-04-25T14:29:10;17.80;72.50
45283;DHT22;31023;44.994;1.796;2023-04-25T14:31:37;17.90;71.80
45283;DHT22;31023;44.994;1.796;2023-04-25T14:34:05;17.70;73.70
45283;DHT22;31023;44.994;1.796;2023-04-25T14:36:31;17.60;71.80
45283;DHT22;31023;44.994;1.796;2023-04-25T14:38:57;17.60;72.50
45283;DHT22;31023;44.994;1.796;2023-04-25T14:41:24;17.90;71.50
45283;DHT22;31023;44.994;1.796;2023-04-25T14:43:51;17.60;71.50
45283;DHT22;31023;44.994;1.796;2023-04-25T14:46:18;17.60;72.80
45283;DHT22;31023;44.994;1.796;2023-04-25T14:48:45;17.60;74.90
45283;DHT22;31023;44.994;1.796;2023-04-25T14:51:11;17.50;71.90
45283;DHT22;31023;44.994;1.796;2023-04-25T14:53:36;17.20;74.90
45283;DHT22;31023;44.994;1.796;2023-04-25T14:56:03;16.90;73.60
45283;DHT22;31023;44.994;1.796;2023-04-25T14:58:28;16.80;73.30
45283;DHT22;31023;44.994;1.796;2023-04-25T15:00:54;16.60;74.30
45283;DHT22;31023;44.994;1.796;2023-04-25T15:03:20;16.50;75.80
45283;DHT22;31023;44.994;1.796;2023-04-25T15:05:46;16.10;73.70
45283;DHT22;31023;44.994;1.796;2023-04-25T15:08:12;16.00;75.70
45283;DHT22;31023;44.994;1.796;2023-04-25T15:10:37;16.00;77.10
45283;DHT22;31023;44.994;1.796;2023-04-25T15:13:03;15.70;76.20
45283;DHT22;31023;44.994;1.796;2023-04-25T15:15:29;15.50;77.40
45283;DHT22;31023;44.994;1.796;2023-04-25T15:17:56;15.60;77.20
45283;DHT22;31023;44.994;1.796;2023-04-25T15:20:22;15.50;77.10
45283;DHT22;31023;44.994;1.796;2023-04-25T15:22:48;15.70;75.60
45283;DHT22;31023;44.994;1.796;2023-04-25T15:25:15;15.60;76.90
45283;DHT22;31023;44.994;1.796;2023-04-25T15:27:43;15.40;77.80
45283;DHT22;31023;44.994;1.796;2023-04-25T15:30:11;15.60;78.40
45283;DHT22;31023;44.994;1.796;2023-04-25T15:32:43;15.50;77.60
45283;DHT22;31023;44.994;1.796;2023-04-25T15:35:09;15.50;78.60
45283;DHT22;31023;44.994;1.796;2023-04-25T15:37:35;15.40;79.60